Time;durP1;ratioP1;P1;durP2;ratioP2;P2;SDS_P1;SDS_P2;PMS_P1;PMS_P2;Temp;Humidity;BMP_temperature;BMP_pressure;BME280_temperature;BME280_humidity;BME280_pressure;Samples;Min_cycle;Max_cycle;Signal;HPM_P1;HPM_P2
2023/04/15 00:00:42;;;;;;;1.05;0.75;;;;;;;5.67;38.90;91345.63;5093605;28;20505;-77
2023/04/15 00:03:08;;;;;;;0.95;0.68;;;;;;;5.64;38.94;91339.19;5058501;28;20515;-77
2023/04/15 00:05:34;;;;;;;1.10;0.70;;;;;;;5.65;38.95;91340.72;5075994;28;20047;-77
2023/04/15 00:08:00;;;;;;;0.60;0.57;;;;;;;5.64;39.17;91337.34;5094019;28;20056;-77
2023/04/15 00:10:26;;;;;;;0.65;0.60;;;;;;;5.63;39.13;91330.63;5092686;28;20036;-78
2023/04/15 00:12:52;;;;;;;1.52;0.90;;;;;;;5.62;38.73;91331.66;5093548;28;20032;-78
2023/04/15 00:15:18;;;;;;;0.47;0.45;;;;;;;5.61;38.61;91327.53;5076036;28;20123;-76
2023/04/15 00:17:44;;;;;;;0.88;0.70;;;;;;;5.62;38.04;91323.88;5057041;28;20524;-78
2023/04/15 00:20:09;;;;;;;0.82;0.60;;;;;;;5.62;38.04;91323.88;5075836;28;20130;-78
2023/04/15 00:22:35;;;;;;;1.17;0.75;;;;;;;5.62;37.65;91318.69;5076228;28;20035;-78
2023/04/15 00:25:02;;;;;;;1.27;0.65;;;;;;;5.57;37.97;91307.63;5076055;28;20037;-78
2023/04/15 00:27:28;;;;;;;2.42;0.85;;;;;;;5.58;38.15;91315.16;5093666;28;20024;-78
2023/04/15 00:29:55;;;;;;;1.45;0.60;;;;;;;5.53;37.85;91310.00;5075365;28;20044;-78
2023/04/15 00:32:20;;;;;;;0.82;0.57;;;;;;;5.60;36.92;91315.59;5073920;28;20035;-78
2023/04/15 00:34:46;;;;;;;0.65;0.63;;;;;;;5.73;36.08;91310.75;5094305;28;20403;-78
2023/04/15 00:37:12;;;;;;;0.75;0.70;;;;;;;5.82;36.00;91314.25;5074319;28;20039;-77
2023/04/15 00:39:38;;;;;;;0.73;0.60;;;;;;;5.90;36.11;91307.59;5072268;28;20121;-77
2023/04/15 00:42:04;;;;;;;0.82;0.70;;;;;;;5.97;35.55;91302.88;5091069;28;20047;-77
2023/04/15 00:44:31;;;;;;;1.48;0.90;;;;;;;5.95;36.64;91305.75;5091029;28;20051;-77
2023/04/15 00:46:58;;;;;;;0.68;0.57;;;;;;;5.98;36.93;91299.97;5072628;28;20024;-77
2023/04/15 00:49:24;;;;;;;0.65;0.60;;;;;;;6.02;36.57;91300.94;5077046;28;20135;-77
2023/04/15 00:51:50;;;;;;;1.05;0.77;;;;;;;5.97;36.44;91306.22;5043525;28;20123;-77
2023/04/15 00:54:16;;;;;;;0.50;0.50;;;;;;;5.92;37.27;91295.91;5059240;28;20451;-77
2023/04/15 00:56:42;;;;;;;0.90;0.70;;;;;;;5.89;36.21;91296.44;5076690;28;20032;-77
2023/04/15 00:59:08;;;;;;;0.98;0.80;;;;;;;5.87;36.54;91295.97;5076667;28;20061;-77
2023/04/15 01:01:35;;;;;;;2.33;0.70;;;;;;;5.90;37.66;91297.22;5076746;28;20035;-77
2023/04/15 01:04:01;;;;;;;1.17;0.65;;;;;;;5.85;38.32;91300.66;5060276;28;20494;-77
2023/04/15 01:06:29;;;;;;;1.02;0.80;;;;;;;5.81;38.65;91297.91;5076510;28;20028;-77
2023/04/15 01:08:56;;;;;;;0.85;0.60;;;;;;;5.71;38.49;91286.91;5094290;28;20031;-77
2023/04/15 01:11:22;;;;;;;1.27;0.80;;;;;;;5.64;39.01;91295.06;5097971;28;20073;-78
2023/04/15 01:13:49;;;;;;;1.15;0.70;;;;;;;5.58;39.03;91293.59;5076031;28;20393;-78
2023/04/15 01:16:18;;;;;;;0.82;0.55;;;;;;;5.50;39.30;91292.41;5057874;28;20044;-77
2023/04/15 01:18:43;;;;;;;1.17;0.70;;;;;;;5.42;39.53;91293.81;5078929;28;20032;-77
2023/04/15 01:21:09;;;;;;;0.60;0.60;;;;;;;5.31;39.75;91289.84;5078739;28;20028;-78
2023/04/15 01:23:39;;;;;;;1.00;0.70;;;;;;;5.30;40.44;91297.91;5098890;28;20540;-76
2023/04/15 01:26:08;;;;;;;1.55;0.73;;;;;;;5.22;41.27;91300.09;5079033;28;20036;-78
2023/04/15 01:28:34;;;;;;;0.60;0.60;;;;;;;5.16;41.59;91298.63;5094599;28;20055;-78
2023/04/15 01:31:13;;;;;;;0.52;0.52;;;;;;;5.14;41.09;91292.94;5079471;28;20498;-78
2023/04/15 01:33:41;;;;;;;0.82;0.70;;;;;;;5.15;40.46;91291.88;5079148;28;20111;-78
2023/04/15 01:36:08;;;;;;;0.50;0.50;;;;;;;5.13;40.52;91293.97;5079304;28;20024;-78
2023/04/15 01:38:35;;;;;;;1.95;0.60;;;;;;;5.09;40.12;91282.66;5097185;28;20040;-78
2023/04/15 01:41:01;;;;;;;1.63;0.90;;;;;;;5.23;37.64;91285.31;5079152;28;20032;-78
2023/04/15 01:43:27;;;;;;;0.95;0.68;;;;;;;5.21;38.21;91285.56;5078280;28;20038;-78
2023/04/15 01:45:53;;;;;;;1.42;0.85;;;;;;;5.21;39.07;91280.38;5078770;28;20073;-78
2023/04/15 01:48:18;;;;;;;0.80;0.60;;;;;;;5.19;39.01;91282.50;5095819;28;20040;-78
2023/04/15 01:50:44;;;;;;;2.25;0.77;;;;;;;5.20;38.61;91283.25;5077081;28;20089;-78
2023/04/15 01:53:10;;;;;;;1.23;0.80;;;;;;;5.19;39.46;91287.69;5077537;28;20038;-76
2023/04/15 01:55:35;;;;;;;1.45;1.00;;;;;;;5.19;40.02;91284.31;5097457;28;20057;-78
2023/04/15 01:58:01;;;;;;;0.57;0.57;;;;;;;5.12;40.65;91283.91;5096241;28;20398;-78
2023/04/15 02:00:27;;;;;;;1.63;0.95;;;;;;;5.06;41.27;91283.19;5076650;28;20154;-77
2023/04/15 02:02:53;;;;;;;1.05;0.68;;;;;;;5.02;40.59;91284.81;5078113;28;20508;-78
2023/04/15 02:05:18;;;;;;;1.85;0.77;;;;;;;5.03;41.50;91288.19;5078239;28;20028;-78
2023/04/15 02:07:47;;;;;;;2.20;0.88;;;;;;;5.01;41.26;91291.06;5096077;28;20066;-78
2023/04/15 02:10:13;;;;;;;0.60;0.50;;;;;;;4.99;40.82;91283.53;5095107;28;20035;-78
2023/04/15 02:12:39;;;;;;;1.10;0.68;;;;;;;5.00;40.51;91281.75;5071283;28;20406;-77
2023/04/15 02:15:06;;;;;;;1.35;0.70;;;;;;;5.00;41.62;91281.75;5078366;28;20050;-78
2023/04/15 02:17:35;;;;;;;2.08;0.93;;;;;;;5.00;41.58;91286.94;5086794;28;20457;-78
2023/04/15 02:20:01;;;;;;;1.38;0.75;;;;;;;5.01;40.80;91288.47;5086443;28;20052;-78
2023/04/15 02:22:26;;;;;;;0.68;0.57;;;;;;;5.01;40.32;91283.28;5058493;28;20071;-78
2023/04/15 02:24:52;;;;;;;1.45;0.65;;;;;;;5.03;40.34;91285.59;5041753;28;20071;-78
2023/04/15 02:27:18;;;;;;;1.15;0.80;;;;;;;5.04;40.48;91289.72;5057733;28;20048;-78
2023/04/15 02:29:44;;;;;;;0.50;0.50;;;;;;;4.99;40.27;91286.13;5062809;28;20031;-78
2023/04/15 02:32:11;;;;;;;0.90;0.60;;;;;;;5.03;39.07;91283.75;5064666;28;20100;-78
2023/04/15 02:34:41;;;;;;;0.88;0.73;;;;;;;5.13;37.39;91285.44;5062683;28;20363;-78
2023/04/15 02:37:10;;;;;;;1.38;0.70;;;;;;;5.21;37.44;91293.34;5067434;28;20087;-77
2023/04/15 02:39:36;;;;;;;2.55;0.73;;;;;;;5.20;39.26;91281.44;5057526;28;20028;-78
2023/04/15 02:42:02;;;;;;;1.00;0.70;;;;;;;5.15;39.89;91280.75;5064933;28;20040;-77
2023/04/15 02:44:27;;;;;;;0.85;0.60;;;;;;;5.08;39.50;91281.09;5054617;28;20497;-77
2023/04/15 02:46:58;;;;;;;1.38;0.70;;;;;;;5.01;39.94;91284.03;5074025;28;20124;-77
2023/04/15 02:49:24;;;;;;;0.70;0.60;;;;;;;4.99;39.48;91280.19;5041046;28;20201;-77
2023/04/15 02:51:50;;;;;;;0.50;0.50;;;;;;;5.01;39.67;91276.25;5085364;28;20053;-78
2023/04/15 02:54:18;;;;;;;1.35;0.80;;;;;;;4.99;38.55;91272.41;5077991;28;20032;-77
2023/04/15 02:56:44;;;;;;;1.60;0.77;;;;;;;5.01;39.23;91278.09;5066346;28;20089;-77
2023/04/15 02:59:11;;;;;;;0.70;0.60;;;;;;;4.97;39.63;91277.88;5057469;28;20036;-77
2023/04/15 03:01:36;;;;;;;1.17;0.80;;;;;;;4.97;38.33;91277.09;5063640;28;20028;-77
2023/04/15 03:04:02;;;;;;;0.82;0.70;;;;;;;5.00;38.37;91276.56;5059344;28;20316;-77
2023/04/15 03:06:27;;;;;;;1.13;0.80;;;;;;;5.10;37.42;91283.41;5075439;28;20026;-77
2023/04/15 03:08:53;;;;;;;1.05;0.68;;;;;;;5.19;36.97;91282.50;5074892;28;20493;-77
2023/04/15 03:11:20;;;;;;;1.45;1.00;;;;;;;5.19;36.85;91273.94;5069969;28;20040;-77
2023/04/15 03:13:46;;;;;;;2.67;0.90;;;;;;;5.30;36.63;91284.94;5053393;28;20041;-77
2023/04/15 03:16:31;;;;;;;1.58;0.70;;;;;;;5.44;35.26;91280.56;5040303;28;20127;-77
2023/04/15 03:18:57;;;;;;;1.13;0.75;;;;;;;5.50;35.57;91279.44;5053437;28;20032;-77
2023/04/15 03:21:23;;;;;;;0.95;0.70;;;;;;;5.52;35.49;91282.53;5070668;28;20040;-77
2023/04/15 03:23:50;;;;;;;1.20;0.70;;;;;;;5.55;36.16;91276.00;5060482;28;20040;-77
2023/04/15 03:26:31;;;;;;;0.77;0.68;;;;;;;5.53;36.16;91284.06;5036744;28;20091;-77
2023/04/15 03:29:06;;;;;;;0.80;0.60;;;;;;;5.53;35.98;91285.88;5053333;28;20493;-77
2023/04/15 03:31:32;;;;;;;0.82;0.70;;;;;;;5.48;36.49;91289.34;5057083;28;20032;-77
2023/04/15 03:33:57;;;;;;;0.88;0.50;;;;;;;5.49;36.66;91284.91;5084239;28;20036;-77
2023/04/15 03:36:23;;;;;;;0.90;0.70;;;;;;;5.50;35.95;91284.63;5053761;28;20040;-77
2023/04/15 03:38:49;;;;;;;0.88;0.82;;;;;;;5.53;36.25;91283.28;5071625;28;20024;-77
2023/04/15 03:41:14;;;;;;;2.17;0.85;;;;;;;5.50;37.17;91279.44;5053662;28;20093;-77
2023/04/15 03:43:40;;;;;;;0.88;0.80;;;;;;;5.55;37.35;91271.56;5068062;28;20032;-77
2023/04/15 03:46:06;;;;;;;1.27;0.77;;;;;;;5.65;36.84;91281.00;5071259;28;20036;-77
2023/04/15 03:48:31;;;;;;;1.27;0.75;;;;;;;5.55;37.94;91270.78;5071367;28;20028;-78
2023/04/15 03:50:57;;;;;;;1.35;0.80;;;;;;;5.53;36.64;91278.09;5070135;28;20032;-77
2023/04/15 03:53:22;;;;;;;1.13;0.70;;;;;;;5.52;37.40;91277.34;5081436;28;20062;-77
2023/04/15 03:55:48;;;;;;;2.25;0.80;;;;;;;5.51;38.20;91280.97;5056906;28;20123;-77
2023/04/15 03:58:14;;;;;;;0.75;0.70;;;;;;;5.49;38.67;91279.72;5071242;28;20036;-77
2023/04/15 04:00:40;;;;;;;0.75;0.70;;;;;;;5.53;38.45;91278.84;5071141;28;20043;-77
2023/04/15 04:03:05;;;;;;;0.70;0.57;;;;;;;5.59;37.72;91274.38;5072692;28;20032;-77
2023/04/15 04:05:31;;;;;;;0.85;0.70;;;;;;;5.70;36.82;91272.38;5080557;28;20040;-77
2023/04/15 04:07:57;;;;;;;0.50;0.50;;;;;;;5.75;36.93;91275.66;5053491;28;20033;-77
2023/04/15 04:10:22;;;;;;;0.52;0.52;;;;;;;5.81;37.22;91274.53;5053325;28;20047;-77
2023/04/15 04:12:48;;;;;;;1.35;0.80;;;;;;;5.84;37.42;91270.56;5052866;28;20048;-77
2023/04/15 04:15:13;;;;;;;0.68;0.68;;;;;;;5.90;38.00;91279.03;5084829;28;20040;-77
2023/04/15 04:17:39;;;;;;;0.80;0.70;;;;;;;5.89;38.44;91280.09;5053170;28;20032;-77
2023/04/15 04:20:06;;;;;;;0.60;0.60;;;;;;;5.89;38.44;91275.69;5071113;28;20068;-77
2023/04/15 04:22:39;;;;;;;0.70;0.70;;;;;;;5.97;37.35;91284.69;5053493;28;20024;-77
2023/04/15 04:25:07;;;;;;;1.23;0.90;;;;;;;6.01;38.08;91278.63;5065070;28;20040;-77
2023/04/15 04:27:33;;;;;;;0.95;0.75;;;;;;;6.04;38.22;91287.66;5089969;28;20031;-76
2023/04/15 04:29:59;;;;;;;1.33;0.80;;;;;;;6.03;38.28;91291.31;5072810;28;20040;-78
2023/04/15 04:32:24;;;;;;;1.77;0.75;;;;;;;5.97;39.95;91293.25;5078321;28;20031;-78
2023/04/15 04:34:50;;;;;;;3.40;0.80;;;;;;;5.88;40.01;91292.31;5080346;28;20089;-78
2023/04/15 04:37:16;;;;;;;0.93;0.60;;;;;;;5.82;40.63;91290.88;5062735;28;20044;-78
2023/04/15 04:39:41;;;;;;;2.20;1.10;;;;;;;5.76;40.80;91292.00;5073377;28;20041;-77
2023/04/15 04:42:07;;;;;;;0.98;0.75;;;;;;;5.69;41.45;91296.78;5073675;28;20107;-78
2023/04/15 04:44:32;;;;;;;1.67;0.82;;;;;;;5.66;40.72;91297.38;5075885;28;20406;-77
2023/04/15 04:46:58;;;;;;;0.73;0.70;;;;;;;5.66;40.54;91297.38;5074595;28;20028;-77
2023/04/15 04:49:23;;;;;;;1.55;0.82;;;;;;;5.67;41.13;91298.91;5093610;28;20090;-78
2023/04/15 04:51:50;;;;;;;1.65;0.70;;;;;;;5.67;41.33;91298.91;5094103;28;20093;-77
2023/04/15 04:54:16;;;;;;;2.53;0.70;;;;;;;5.67;42.00;91304.09;5094756;28;20036;-78
2023/04/15 04:56:41;;;;;;;1.33;0.70;;;;;;;5.68;40.91;91311.59;5074803;28;20252;-77
2023/04/15 04:59:08;;;;;;;1.27;0.88;;;;;;;5.69;39.50;91312.38;5092343;28;20044;-77
2023/04/15 05:01:33;;;;;;;1.00;0.82;;;;;;;5.71;40.56;91318.06;5069418;28;20028;-77
2023/04/15 05:04:00;;;;;;;1.83;1.00;;;;;;;5.71;40.51;91320.66;5088038;28;20035;-77
2023/04/15 05:06:25;;;;;;;2.00;0.80;;;;;;;5.72;39.52;91319.59;5072677;28;20062;-77
2023/04/15 05:08:51;;;;;;;1.10;0.80;;;;;;;5.69;39.90;91318.34;5079557;28;20127;-77
2023/04/15 05:11:16;;;;;;;1.17;0.82;;;;;;;5.66;40.45;91312.94;5082086;28;20039;-77
2023/04/15 05:13:42;;;;;;;1.20;0.80;;;;;;;5.73;39.94;91318.53;5055035;28;20055;-77
2023/04/15 05:16:08;;;;;;;1.10;0.80;;;;;;;5.70;40.55;91316.53;5070659;28;20044;-77
2023/04/15 05:18:33;;;;;;;1.13;0.73;;;;;;;5.70;41.53;91316.53;5052868;28;20033;-77
2023/04/15 05:20:59;;;;;;;0.77;0.70;;;;;;;5.72;41.21;91322.97;5073442;28;20368;-77
2023/04/15 05:23:25;;;;;;;0.95;0.70;;;;;;;5.76;39.45;91321.31;5063882;28;20040;-77
2023/04/15 05:25:51;;;;;;;1.27;0.73;;;;;;;5.80;39.85;91324.13;5072982;28;20483;-77
2023/04/15 05:28:16;;;;;;;0.68;0.60;;;;;;;5.84;39.66;91327.72;5083612;28;20505;-77
2023/04/15 05:30:42;;;;;;;0.75;0.73;;;;;;;5.87;41.50;91334.94;5087219;28;20028;-77
2023/04/15 05:33:07;;;;;;;1.92;0.80;;;;;;;5.91;43.34;91330.72;5065717;28;20135;-77
2023/04/15 05:35:33;;;;;;;1.00;0.80;;;;;;;5.95;42.73;91331.72;5094485;28;20036;-77
2023/04/15 05:37:59;;;;;;;1.83;1.30;;;;;;;6.02;44.10;91333.94;5094324;28;20452;-77
2023/04/15 05:40:25;;;;;;;0.88;0.70;;;;;;;6.09;43.74;91336.94;5076192;28;20028;-77
2023/04/15 05:42:51;;;;;;;1.38;0.90;;;;;;;6.17;43.71;91332.91;5076215;28;20040;-77
2023/04/15 05:45:16;;;;;;;1.35;0.73;;;;;;;6.27;44.02;91339.75;5074972;28;20107;-77
2023/04/15 05:47:42;;;;;;;0.70;0.60;;;;;;;6.35;44.25;91346.88;5094575;28;20036;-77
2023/04/15 05:50:08;;;;;;;2.55;0.65;;;;;;;6.42;45.41;91342.84;5084075;28;20047;-77
2023/04/15 05:52:33;;;;;;;2.00;0.80;;;;;;;6.47;44.61;91342.00;5056672;28;20047;-77
2023/04/15 05:54:59;;;;;;;1.25;0.93;;;;;;;6.54;45.45;91347.56;5084788;28;20115;-77
2023/04/15 05:57:25;;;;;;;1.00;0.73;;;;;;;6.60;45.24;91346.44;5076244;28;20044;-77
2023/04/15 05:59:51;;;;;;;1.55;0.80;;;;;;;6.66;45.29;91344.47;5076918;28;20048;-78
2023/04/15 06:02:17;;;;;;;1.10;0.80;;;;;;;6.69;44.97;91349.13;5075543;28;20036;-78
2023/04/15 06:04:43;;;;;;;2.67;1.02;;;;;;;6.77;43.88;91355.47;5073691;28;20016;-78
2023/04/15 06:07:08;;;;;;;0.43;0.43;;;;;;;6.82;41.89;91348.34;5075472;28;20036;-77
2023/04/15 06:09:35;;;;;;;2.08;0.80;;;;;;;6.90;41.52;91356.53;5094481;28;20024;-77
2023/04/15 06:12:01;;;;;;;2.50;1.00;;;;;;;6.99;40.76;91354.78;5075430;28;20036;-77
2023/04/15 06:14:26;;;;;;;0.90;0.70;;;;;;;7.04;40.30;91339.81;5092664;28;20204;-79
2023/04/15 06:16:52;;;;;;;1.17;0.73;;;;;;;7.18;39.02;91347.63;5076855;28;20933;-77
2023/04/15 06:19:19;;;;;;;1.10;0.90;;;;;;;7.39;39.75;91349.81;5089840;28;20130;-77
2023/04/15 06:21:45;;;;;;;3.45;0.90;;;;;;;7.39;39.76;91349.81;5073884;28;20401;-79
2023/04/15 06:24:11;;;;;;;1.50;0.77;;;;;;;7.34;39.30;91361.09;5092975;28;20100;-79
2023/04/15 06:26:36;;;;;;;1.60;1.02;;;;;;;7.33;39.56;91353.56;5090812;28;20036;-78
2023/04/15 06:29:02;;;;;;;0.90;0.85;;;;;;;7.29;38.79;91366.38;5069994;28;20086;-79
2023/04/15 06:31:28;;;;;;;1.48;0.85;;;;;;;7.33;39.48;91364.75;5086655;28;20120;-79
2023/04/15 06:33:53;;;;;;;0.70;0.70;;;;;;;7.35;38.05;91370.44;5060324;28;20063;-79
2023/04/15 06:36:19;;;;;;;1.58;0.80;;;;;;;7.38;38.12;91371.69;5092759;28;20097;-79
2023/04/15 06:38:45;;;;;;;2.05;1.20;;;;;;;7.30;38.82;91373.16;5072978;28;20032;-77
2023/04/15 06:41:11;;;;;;;3.28;1.08;;;;;;;8.65;36.96;91367.94;5083721;28;20481;-77
2023/04/15 06:43:36;;;;;;;1.42;0.90;;;;;;;9.65;36.15;91374.31;5076098;28;20051;-78
2023/04/15 06:46:02;;;;;;;1.23;0.90;;;;;;;9.91;33.34;91378.78;5073219;28;20043;-79
2023/04/15 06:48:27;;;;;;;1.70;0.85;;;;;;;10.08;33.11;91372.75;5071793;28;20058;-78
2023/04/15 06:50:53;;;;;;;8.82;6.00;;;;;;;11.18;33.57;91375.69;5093908;28;20446;-79
2023/04/15 06:53:19;;;;;;;0.88;0.70;;;;;;;11.90;30.41;91370.47;5093527;28;20024;-78
2023/04/15 06:55:45;;;;;;;0.60;0.60;;;;;;;11.28;31.25;91370.09;5061458;28;20036;-78
2023/04/15 06:58:10;;;;;;;0.82;0.70;;;;;;;11.10;32.21;91373.88;5075501;28;20061;-78
2023/04/15 07:00:38;;;;;;;2.88;0.90;;;;;;;11.62;31.32;91370.97;5073617;28;20048;-77
2023/04/15 07:03:04;;;;;;;1.10;0.90;;;;;;;11.00;32.47;91370.53;5082754;28;20109;-78
2023/04/15 07:05:31;;;;;;;1.30;0.88;;;;;;;10.75;32.08;91379.25;5075494;28;20024;-77
2023/04/15 07:07:57;;;;;;;0.85;0.70;;;;;;;10.86;32.04;91374.47;5081194;28;20028;-77
2023/04/15 07:10:22;;;;;;;4.18;1.05;;;;;;;10.81;34.31;91372.78;5078396;28;20093;-77
2023/04/15 07:12:54;;;;;;;0.57;0.50;;;;;;;10.58;32.98;91370.41;5075620;28;20050;-78
2023/04/15 07:15:21;;;;;;;0.55;0.55;;;;;;;10.49;32.00;91361.00;5061811;28;20048;-78
2023/04/15 07:17:46;;;;;;;0.85;0.80;;;;;;;10.51;32.70;91358.84;5086421;28;20035;-78
2023/04/15 07:20:12;;;;;;;1.90;1.20;;;;;;;10.22;32.76;91357.66;5047586;28;20036;-78
2023/04/15 07:22:39;;;;;;;1.73;1.30;;;;;;;10.15;33.08;91359.97;5057643;28;20478;-80
2023/04/15 07:25:05;;;;;;;1.08;0.90;;;;;;;10.60;32.86;91365.63;5084745;28;20111;-79
2023/04/15 07:27:31;;;;;;;1.50;0.80;;;;;;;11.27;32.09;91363.31;5080386;28;20437;-78
2023/04/15 07:29:57;;;;;;;0.90;0.80;;;;;;;11.32;31.45;91360.50;5076050;28;20702;-79
2023/04/15 07:32:22;;;;;;;1.15;0.90;;;;;;;11.13;32.50;91362.78;5065725;28;20042;-77
2023/04/15 07:34:48;;;;;;;0.90;0.82;;;;;;;10.69;32.20;91367.41;5073610;28;20032;-79
2023/04/15 07:37:15;;;;;;;1.10;1.00;;;;;;;10.41;34.01;91363.34;5091430;28;20043;-79
2023/04/15 07:39:40;;;;;;;2.08;1.08;;;;;;;10.28;32.34;91371.34;5096077;28;20078;-79
2023/04/15 07:42:06;;;;;;;1.13;0.80;;;;;;;10.92;32.86;91366.13;5074682;28;20035;-77
2023/04/15 07:44:31;;;;;;;1.17;1.00;;;;;;;11.50;34.10;91349.91;5073414;28;20135;-79
2023/04/15 07:46:57;;;;;;;1.60;0.93;;;;;;;11.53;30.48;91367.63;5066916;28;20428;-77
2023/04/15 07:49:24;;;;;;;1.02;0.90;;;;;;;11.37;32.12;91362.97;5089380;28;20048;-77
2023/04/15 07:51:50;;;;;;;1.48;1.02;;;;;;;11.31;32.35;91366.06;5089791;28;20031;-77
2023/04/15 07:54:16;;;;;;;2.53;1.33;;;;;;;11.33;34.53;91356.81;5065088;28;20072;-76
2023/04/15 07:56:41;;;;;;;0.95;0.70;;;;;;;11.23;30.12;91365.78;5075112;28;20023;-77
2023/04/15 07:59:08;;;;;;;0.70;0.68;;;;;;;11.13;32.84;91362.78;5059385;28;20147;-78
2023/04/15 08:01:35;;;;;;;1.13;0.95;;;;;;;10.96;33.43;91366.25;5075821;28;20036;-78
2023/04/15 08:04:01;;;;;;;1.30;0.70;;;;;;;10.88;32.73;91359.97;5087719;28;20094;-77
2023/04/15 08:06:27;;;;;;;1.65;1.10;;;;;;;10.79;33.35;91370.47;5086322;28;20034;-77
2023/04/15 08:08:53;;;;;;;1.63;1.05;;;;;;;10.81;33.65;91370.16;5090549;28;20040;-78
2023/04/15 08:11:20;;;;;;;0.90;0.77;;;;;;;10.74;33.58;91362.00;5089313;28;20053;-78
2023/04/15 08:13:46;;;;;;;1.63;0.93;;;;;;;10.39;34.41;91362.88;5091532;28;20040;-76
2023/04/15 08:16:21;;;;;;;0.50;0.50;;;;;;;10.66;34.78;91371.44;5092239;28;20035;-78
2023/04/15 08:18:48;;;;;;;2.72;1.63;;;;;;;10.95;35.45;91370.72;5076657;28;20042;-78
2023/04/15 08:21:14;;;;;;;6.78;4.38;;;;;;;11.02;35.61;91360.50;5091662;28;20046;-78
2023/04/15 08:23:41;;;;;;;5.03;3.42;;;;;;;10.36;35.60;91378.44;5091815;28;20410;-78
2023/04/15 08:26:08;;;;;;;1.70;1.20;;;;;;;10.54;36.30;91372.09;5092257;28;20130;-78
2023/04/15 08:28:33;;;;;;;1.52;0.70;;;;;;;10.76;34.52;91371.09;5093515;28;20048;-78
2023/04/15 08:30:59;;;;;;;0.60;0.60;;;;;;;10.47;33.87;91374.44;5092510;28;20024;-78
2023/04/15 08:33:25;;;;;;;1.13;0.90;;;;;;;10.24;34.33;91371.19;5092092;28;20508;-78
2023/04/15 08:35:50;;;;;;;1.98;0.90;;;;;;;10.11;35.38;91361.66;5074479;28;20035;-78
2023/04/15 08:38:17;;;;;;;1.25;0.80;;;;;;;10.12;36.58;91358.75;5074610;28;20040;-78
2023/04/15 08:40:45;;;;;;;1.23;1.08;;;;;;;10.02;35.58;91364.31;5073377;28;20028;-78
2023/04/15 08:43:25;;;;;;;1.98;1.20;;;;;;;10.05;36.87;91368.16;5089958;28;20033;-78
2023/04/15 08:45:51;;;;;;;1.95;1.02;;;;;;;9.92;37.51;91362.00;5091981;28;20031;-78
2023/04/15 08:48:18;;;;;;;2.20;1.10;;;;;;;10.11;37.54;91370.31;5094171;28;20077;-79
2023/04/15 08:50:45;;;;;;;1.88;0.98;;;;;;;10.55;37.01;91365.75;5072941;28;20028;-78
2023/04/15 08:53:11;;;;;;;1.00;0.90;;;;;;;10.81;37.14;91367.53;5092893;28;20035;-78
2023/04/15 08:55:43;;;;;;;2.83;1.40;;;;;;;10.96;35.78;91359.13;5071385;28;20509;-77
2023/04/15 08:58:10;;;;;;;3.13;1.63;;;;;;;11.42;36.61;91360.16;5088646;28;20060;-78
2023/04/15 09:00:37;;;;;;;3.10;1.55;;;;;;;11.46;37.49;91355.81;5093096;28;20027;-77
2023/04/15 09:03:05;;;;;;;2.88;1.35;;;;;;;11.84;37.51;91349.69;5093002;28;20043;-78
2023/04/15 09:05:37;;;;;;;2.05;1.02;;;;;;;12.15;35.62;91353.75;5084216;28;20424;-78
2023/04/15 09:08:04;;;;;;;1.02;0.80;;;;;;;11.91;33.19;91345.78;5096697;28;20036;-79
2023/04/15 09:10:31;;;;;;;1.10;0.88;;;;;;;11.91;33.16;91338.69;5086829;28;20032;-79
2023/04/15 09:12:57;;;;;;;1.73;1.00;;;;;;;11.72;35.54;91335.75;5095064;28;20048;-79
2023/04/15 09:15:28;;;;;;;1.08;0.90;;;;;;;11.64;34.78;91345.19;5095078;28;20039;-78
2023/04/15 09:17:54;;;;;;;1.00;0.80;;;;;;;11.76;32.07;91336.63;5084885;28;20044;-77
2023/04/15 09:20:20;;;;;;;1.52;1.10;;;;;;;12.00;34.31;91328.91;5083534;28;20028;-76
2023/04/15 09:22:48;;;;;;;1.58;0.93;;;;;;;12.02;37.04;91337.22;5070320;28;20432;-76
2023/04/15 09:25:28;;;;;;;9.35;5.97;;;;;;;12.10;35.58;91340.84;5074449;28;20028;-76
2023/04/15 09:27:59;;;;;;;5.20;2.35;;;;;;;12.05;36.65;91331.31;5090426;28;20028;-76
2023/04/15 09:30:27;;;;;;;3.15;1.73;;;;;;;12.08;37.02;91328.03;5090344;28;20028;-76
2023/04/15 09:32:53;;;;;;;1.80;1.15;;;;;;;12.17;36.29;91335.84;5091457;28;20028;-76
2023/04/15 09:35:23;;;;;;;1.98;1.30;;;;;;;12.60;33.78;91329.38;5087930;28;20581;-76
2023/04/15 09:37:50;;;;;;;1.75;1.15;;;;;;;12.76;33.76;91323.50;5088864;28;20059;-77
2023/04/15 09:40:32;;;;;;;2.97;1.20;;;;;;;12.76;33.26;91334.00;5089328;28;20054;-76
2023/04/15 09:42:58;;;;;;;1.63;1.02;;;;;;;12.77;34.51;91335.53;5090281;28;20047;-77
2023/04/15 09:45:25;;;;;;;1.75;1.25;;;;;;;12.88;33.77;91326.91;5089343;28;20086;-77
2023/04/15 09:47:51;;;;;;;1.35;0.93;;;;;;;12.85;32.41;91324.16;5081593;28;20538;-76
2023/04/15 09:50:18;;;;;;;1.83;1.20;;;;;;;12.36;32.43;91322.25;5070696;28;20078;-76
2023/04/15 09:52:44;;;;;;;2.22;1.30;;;;;;;12.62;36.34;91329.06;5091055;28;20044;-76
2023/04/15 09:55:11;;;;;;;2.55;1.20;;;;;;;12.55;32.71;91328.84;5069447;28;20040;-76
2023/04/15 09:57:39;;;;;;;4.72;1.77;;;;;;;12.71;35.39;91317.34;5073110;28;20044;-76
2023/04/15 10:00:07;;;;;;;2.85;1.10;;;;;;;12.73;34.72;91313.66;5081764;28;20095;-77
2023/04/15 10:02:34;;;;;;;3.33;1.60;;;;;;;12.50;35.32;91321.94;5087600;28;20048;-76
2023/04/15 10:05:01;;;;;;;2.80;1.70;;;;;;;12.46;33.33;91321.03;5070920;28;20032;-76
2023/04/15 10:07:27;;;;;;;1.35;1.05;;;;;;;12.53;33.51;91323.13;5093938;28;20039;-76
2023/04/15 10:09:54;;;;;;;2.17;1.10;;;;;;;12.45;33.07;91312.41;5089903;28;20023;-77
2023/04/15 10:12:21;;;;;;;1.70;0.98;;;;;;;12.26;33.33;91314.75;5089008;28;20105;-76
2023/04/15 10:14:55;;;;;;;2.42;1.42;;;;;;;12.45;32.88;91298.50;5083477;28;20490;-76
2023/04/15 10:17:22;;;;;;;1.90;1.00;;;;;;;12.34;34.96;91303.44;5083083;28;20279;-76
2023/04/15 10:19:48;;;;;;;9.85;1.65;;;;;;;12.32;35.88;91307.47;5086079;28;20060;-77
2023/04/15 10:22:14;;;;;;;1.33;1.05;;;;;;;12.28;33.63;91300.22;5090254;28;20119;-77
2023/04/15 10:24:41;;;;;;;1.40;1.00;;;;;;;12.32;34.22;91307.47;5089624;28;20107;-76
2023/04/15 10:27:07;;;;;;;0.93;0.80;;;;;;;12.40;34.68;91306.59;5086291;28;20118;-76
2023/04/15 10:29:33;;;;;;;2.67;1.02;;;;;;;12.40;35.56;91311.84;5089151;28;20032;-77
2023/04/15 10:32:00;;;;;;;3.35;1.60;;;;;;;12.42;34.98;91299.16;5090303;28;20028;-75
2023/04/15 10:34:28;;;;;;;3.70;1.30;;;;;;;12.56;35.46;91304.88;5093475;28;20116;-76
2023/04/15 10:37:03;;;;;;;1.58;1.02;;;;;;;12.51;34.59;91302.44;5074654;28;20031;-77
2023/04/15 10:39:32;;;;;;;3.05;1.27;;;;;;;12.47;36.64;91302.34;5068821;28;20031;-75
2023/04/15 10:42:18;;;;;;;3.15;1.35;;;;;;;12.57;36.22;91298.53;5079463;28;20032;-76
2023/04/15 10:44:55;;;;;;;2.38;1.13;;;;;;;12.55;36.83;91298.09;5075601;28;20490;-75
2023/04/15 10:47:21;;;;;;;3.55;1.40;;;;;;;12.53;36.40;91292.41;5058924;28;20039;-77
2023/04/15 10:49:49;;;;;;;1.90;1.20;;;;;;;12.40;35.73;91285.59;5061305;28;20028;-76
2023/04/15 10:52:22;;;;;;;2.53;1.48;;;;;;;12.23;35.86;91287.31;5081096;28;20441;-77
2023/04/15 10:58:39;;;;;;;3.65;1.58;;;;;;;12.87;36.27;91275.44;5085893;28;20031;-78
2023/04/15 11:01:06;;;;;;;1.17;0.90;;;;;;;13.08;34.11;91283.22;5089652;28;20027;-75
2023/04/15 11:03:37;;;;;;;2.22;1.20;;;;;;;12.79;34.69;91283.44;5057943;28;20052;-78
2023/04/15 11:06:05;;;;;;;1.23;1.00;;;;;;;12.87;35.55;91285.19;5090344;28;20050;-78
2023/04/15 11:08:57;;;;;;;2.88;1.50;;;;;;;13.11;34.86;91277.31;5084411;28;20031;-78
2023/04/15 11:12:04;;;;;;;2.47;1.33;;;;;;;12.87;34.69;91278.06;5063184;28;20047;-79
2023/04/15 11:14:33;;;;;;;1.65;1.10;;;;;;;12.81;34.23;91273.38;5070084;28;20577;-77
2023/04/15 11:16:58;;;;;;;1.20;1.00;;;;;;;12.79;33.98;91276.34;5080374;28;20039;-79
2023/04/15 11:19:26;;;;;;;1.20;0.90;;;;;;;12.84;33.73;91262.22;5072280;28;20035;-77
2023/04/15 11:22:29;;;;;;;1.65;1.20;;;;;;;12.71;33.90;91264.84;5088452;28;20044;-78
2023/04/15 11:24:58;;;;;;;2.45;1.40;;;;;;;12.82;35.99;91274.91;5091360;28;20918;-79
2023/04/15 11:27:26;;;;;;;1.20;0.95;;;;;;;12.77;35.29;91265.41;5086905;28;20114;-78
2023/04/15 11:29:52;;;;;;;5.53;1.52;;;;;;;12.74;37.28;91268.66;5070339;28;20043;-79
2023/04/15 11:32:21;;;;;;;3.60;1.30;;;;;;;12.77;37.00;91268.03;5057149;28;20028;-79
2023/04/15 11:34:47;;;;;;;2.90;1.55;;;;;;;12.79;37.24;91270.31;5089101;28;20063;-79
2023/04/15 11:37:17;;;;;;;3.38;1.90;;;;;;;12.78;36.62;91263.53;5090163;28;20474;-79
2023/04/15 11:39:46;;;;;;;3.00;1.70;;;;;;;12.93;37.42;91268.13;5075587;28;20036;-78
2023/04/15 11:42:17;;;;;;;5.93;1.50;;;;;;;13.00;37.22;91273.59;5107385;28;20432;-77